Time;durP1;ratioP1;P1;durP2;ratioP2;P2;SDS_P1;SDS_P2;PMS_P1;PMS_P2;Temp;Humidity;BMP_temperature;BMP_pressure;BME280_temperature;BME280_humidity;BME280_pressure;Samples;Min_cycle;Max_cycle;Signal;HPM_P1;HPM_P2
2022/06/20 00:00:58;;;;;;;9.80;2.10;;;;;;;-146.64;100.00;100537.94;5087602;28;20035;-74
2022/06/20 00:03:29;;;;;;;9.85;2.67;;;;;;;-146.64;100.00;100537.94;5059344;28;20028;-74
2022/06/20 00:05:54;;;;;;;9.73;2.20;;;;;;;-146.64;100.00;100537.94;5069111;28;20024;-74
2022/06/20 00:08:20;;;;;;;11.23;2.07;;;;;;;-146.64;100.00;101070.00;5071832;28;20031;-73
2022/06/20 00:10:46;;;;;;;8.70;2.40;;;;;;;-146.64;100.00;100537.94;5063850;28;20027;-75
2022/06/20 00:13:20;;;;;;;15.45;2.53;;;;;;;-146.64;100.00;101070.00;5057300;28;20032;-73
2022/06/20 00:15:47;;;;;;;10.90;2.67;;;;;;;-146.64;100.00;101868.22;5069121;28;20043;-73
2022/06/20 00:18:12;;;;;;;9.88;3.13;;;;;;;-146.64;100.00;101336.06;5055527;28;20110;-73
2022/06/20 00:20:38;;;;;;;11.83;2.70;;;;;;;-146.64;100.00;102134.31;5053335;28;20052;-73
2022/06/20 00:23:04;;;;;;;12.07;2.47;;;;;;;-146.64;100.00;102666.59;5045594;28;20041;-74
2022/06/20 00:25:30;;;;;;;15.73;2.40;;;;;;;-146.64;100.00;102666.59;5071183;28;20035;-74
2022/06/20 00:27:55;;;;;;;13.00;3.87;;;;;;;-146.64;100.00;103465.13;5071679;28;20082;-74
2022/06/20 00:30:22;;;;;;;11.57;2.77;;;;;;;-146.64;100.00;103198.94;5071613;28;20637;-75
2022/06/20 00:32:48;;;;;;;18.98;2.80;;;;;;;-146.64;100.00;102666.59;5054292;28;20032;-74
2022/06/20 00:35:14;;;;;;;11.98;2.13;;;;;;;-146.64;100.00;102666.59;5055412;28;20025;-73
2022/06/20 00:37:39;;;;;;;9.77;2.03;;;;;;;-146.64;100.00;102932.75;5066702;28;20093;-74
2022/06/20 00:40:19;;;;;;;7.40;2.03;;;;;;;-146.64;100.00;103198.94;5068248;28;20115;-73
2022/06/20 00:42:44;;;;;;;9.43;2.00;;;;;;;-146.64;100.00;102932.75;5073402;28;20487;-74
2022/06/20 00:45:10;;;;;;;12.20;1.90;;;;;;;-146.64;100.00;102400.44;5085877;28;20056;-73
2022/06/20 00:47:39;;;;;;;12.10;3.20;;;;;;;-146.64;100.00;102134.31;5059495;28;20532;-73
2022/06/20 00:50:17;;;;;;;12.77;2.40;;;;;;;-146.64;100.00;101070.00;5088660;28;20043;-73
2022/06/20 00:52:48;;;;;;;9.35;2.47;;;;;;;-146.64;100.00;99739.97;5051745;28;20097;-73
2022/06/20 00:55:19;;;;;;;8.43;2.03;;;;;;;-146.64;100.00;99739.97;5055634;28;20056;-74
2022/06/20 00:57:53;;;;;;;13.77;2.40;;;;;;;-146.64;100.00;99208.09;5083914;28;20103;-73
2022/06/20 01:00:22;;;;;;;14.45;3.20;;;;;;;-146.64;100.00;98942.19;5042832;28;20391;-73
2022/06/20 01:02:54;;;;;;;12.13;2.40;;;;;;;-146.64;100.00;98942.19;5052159;28;20029;-73
2022/06/20 01:05:30;;;;;;;8.93;2.78;;;;;;;-146.64;100.00;98144.53;5066262;28;20041;-73
2022/06/20 01:08:03;;;;;;;9.68;2.10;;;;;;;-146.64;100.00;98144.53;5056751;28;20035;-73
2022/06/20 01:10:35;;;;;;;10.15;2.08;;;;;;;-146.64;100.00;97612.84;5052202;28;20068;-73
2022/06/20 01:13:03;;;;;;;10.50;2.25;;;;;;;-146.64;100.00;98942.19;5057288;28;20029;-73
2022/06/20 01:15:35;;;;;;;11.00;2.92;;;;;;;-146.64;100.00;99474.03;5052798;28;20031;-73
2022/06/20 01:18:02;;;;;;;6.15;1.75;;;;;;;-146.64;100.00;98144.53;5088932;28;20514;-74
2022/06/20 01:20:30;;;;;;;6.65;2.17;;;;;;;-146.64;100.00;100271.94;5054198;28;20073;-73
2022/06/20 01:23:12;;;;;;;8.18;2.20;;;;;;;-146.64;100.00;101336.06;5036250;28;20041;-73
2022/06/20 01:26:35;;;;;;;13.00;2.33;;;;;;;-146.64;100.00;102400.44;5078632;28;20049;-73
2022/06/20 01:29:04;;;;;;;9.50;2.47;;;;;;;-146.64;100.00;103465.13;5025785;28;20037;-73
2022/06/20 01:31:33;;;;;;;11.38;2.00;;;;;;;-146.64;100.00;103465.13;5025828;28;20033;-73
2022/06/20 01:34:00;;;;;;;17.27;2.38;;;;;;;-146.64;100.00;103465.13;5046468;28;20040;-73
2022/06/20 01:39:12;;;;;;;16.67;2.83;;;;;;;-146.64;100.00;103997.56;5073642;28;19974;-73
2022/06/20 01:44:22;;;;;;;11.48;2.58;;;;;;;-146.64;100.00;103997.56;5072055;28;20063;-73
2022/06/20 01:46:47;;;;;;;9.87;2.57;;;;;;;-146.64;100.00;104530.09;5060070;28;20056;-74
2022/06/20 01:49:16;;;;;;;15.70;3.00;;;;;;;-146.64;100.00;104796.38;5082770;28;20024;-74
2022/06/20 01:51:53;;;;;;;11.60;2.30;;;;;;;-146.64;100.00;105329.00;5055056;28;20037;-74
2022/06/20 01:54:19;;;;;;;14.93;2.50;;;;;;;-146.64;100.00;105861.69;5073427;28;20480;-73
2022/06/20 01:56:46;;;;;;;15.60;3.00;;;;;;;-146.64;100.00;105595.31;5072946;28;20048;-73
2022/06/20 01:59:34;;;;;;;;;;;;;;;-146.64;100.00;105595.31;5055315;28;20399;-74
2022/06/20 02:01:59;;;;;;;9.65;2.47;;;;;;;-146.64;100.00;105062.66;5063744;28;20426;-74
2022/06/20 02:04:28;;;;;;;14.70;2.83;;;;;;;-146.64;100.00;104530.09;5069466;28;20104;-74
2022/06/20 02:06:54;;;;;;;13.15;2.55;;;;;;;-146.64;100.00;104796.38;5072807;28;20024;-72
2022/06/20 02:09:19;;;;;;;18.60;3.53;;;;;;;-146.64;100.00;104530.09;5074223;28;20047;-73
2022/06/20 02:11:46;;;;;;;11.27;2.77;;;;;;;-146.64;100.00;104530.09;5069647;28;20024;-73
2022/06/20 02:14:23;;;;;;;11.77;3.20;;;;;;;-146.64;100.00;103997.56;5065922;28;20021;-73
2022/06/20 02:16:59;;;;;;;15.40;3.00;;;;;;;-146.64;100.00;104263.81;5056804;28;20035;-73
2022/06/20 02:19:29;;;;;;;14.43;3.17;;;;;;;-146.64;100.00;104530.09;5055316;28;20040;-73
2022/06/20 02:22:00;;;;;;;13.30;3.22;;;;;;;-146.64;100.00;104263.81;5073109;28;20115;-73
2022/06/20 02:24:32;;;;;;;10.07;2.28;;;;;;;-146.64;100.00;104530.09;5080330;28;20028;-73
2022/06/20 02:27:01;;;;;;;13.90;3.30;;;;;;;-146.64;100.00;105595.31;5073883;28;20024;-73
2022/06/20 02:29:28;;;;;;;10.00;2.30;;;;;;;-146.64;100.00;105861.69;5040471;28;20056;-73
2022/06/20 02:31:55;;;;;;;18.65;3.22;;;;;;;-146.64;100.00;105861.69;5069038;28;20039;-73
2022/06/20 02:34:22;;;;;;;9.93;2.15;;;;;;;-146.64;100.00;106128.03;5075519;28;20043;-73
2022/06/20 02:36:49;;;;;;;15.10;3.28;;;;;;;-146.64;100.00;105595.31;5062287;28;20032;-73
2022/06/20 02:39:16;;;;;;;16.45;3.72;;;;;;;-146.64;100.00;106128.03;5054730;28;20119;-74
2022/06/20 02:41:42;;;;;;;11.20;2.83;;;;;;;-146.64;100.00;106394.44;5069629;28;20036;-75
2022/06/20 02:44:14;;;;;;;8.95;3.05;;;;;;;-146.64;100.00;106128.03;5073830;28;20034;-73
2022/06/20 02:46:42;;;;;;;15.70;2.78;;;;;;;-146.64;100.00;106128.03;5059988;28;20032;-73
2022/06/20 02:49:09;;;;;;;12.98;2.67;;;;;;;-146.64;100.00;105062.66;5085486;28;20032;-73
2022/06/20 02:51:40;;;;;;;17.70;2.97;;;;;;;-146.64;100.00;105062.66;5062431;28;20033;-73
2022/06/20 02:54:07;;;;;;;9.48;2.50;;;;;;;-146.64;100.00;104796.38;5060664;28;20020;-73
2022/06/20 02:56:44;;;;;;;;;;;;;;;-146.64;100.00;105062.66;5062797;28;20030;-73
2022/06/20 02:59:22;;;;;;;11.00;2.60;;;;;;;-146.64;100.00;105595.31;5075839;28;19923;-73
2022/06/20 03:01:53;;;;;;;14.98;3.33;;;;;;;-146.64;100.00;105062.66;5069389;28;20039;-73
2022/06/20 03:04:20;;;;;;;17.88;2.80;;;;;;;-146.64;100.00;103997.56;5069790;28;20399;-74
2022/06/20 03:06:58;;;;;;;14.10;3.22;;;;;;;-146.64;100.00;103997.56;5054020;28;20060;-73
2022/06/20 03:09:28;;;;;;;8.82;3.15;;;;;;;-146.64;100.00;103997.56;5049072;28;20042;-73
2022/06/20 03:11:54;;;;;;;19.95;3.08;;;;;;;-146.64;100.00;104530.09;5076711;28;20032;-74
2022/06/20 03:14:21;;;;;;;10.20;2.80;;;;;;;-146.64;100.00;103997.56;5054341;28;20082;-72
2022/06/20 03:16:47;;;;;;;8.57;2.53;;;;;;;-146.64;100.00;104263.81;5037741;28;20043;-74
2022/06/20 03:19:21;;;;;;;13.67;2.33;;;;;;;-146.64;100.00;103731.34;5079222;28;20483;-73
2022/06/20 03:21:47;;;;;;;13.63;2.85;;;;;;;-146.64;100.00;103465.13;5072947;28;20479;-74
2022/06/20 03:24:18;;;;;;;13.98;3.13;;;;;;;-146.64;100.00;103731.34;5076275;28;20030;-72
2022/06/20 03:26:44;;;;;;;17.02;3.28;;;;;;;-146.64;100.00;103731.34;5072317;28;20521;-72
2022/06/20 03:29:13;;;;;;;12.20;3.43;;;;;;;-146.64;100.00;103731.34;5055991;28;20034;-73
2022/06/20 03:31:38;;;;;;;14.98;2.75;;;;;;;-146.64;100.00;103198.94;5073553;28;20107;-74
2022/06/20 03:34:03;;;;;;;10.70;2.70;;;;;;;-146.64;100.00;102932.75;5073924;28;20107;-73
2022/06/20 03:36:29;;;;;;;8.37;2.63;;;;;;;-146.64;100.00;102666.59;5084798;28;20116;-73
2022/06/20 03:38:55;;;;;;;14.43;2.87;;;;;;;-146.64;100.00;101602.13;5066969;28;20032;-74
2022/06/20 03:41:24;;;;;;;10.33;2.70;;;;;;;-146.64;100.00;101868.22;5074881;28;20085;-75
2022/06/20 03:44:18;;;;;;;11.55;2.88;;;;;;;-146.64;100.00;101602.13;5072379;28;20280;-74
2022/06/20 03:46:58;;;;;;;14.45;3.10;;;;;;;-146.64;100.00;100537.94;5071640;28;20494;-75
2022/06/20 03:50:02;;;;;;;9.55;2.63;;;;;;;-146.64;100.00;99208.09;5062294;28;20498;-74
2022/06/20 03:52:33;;;;;;;13.55;2.65;;;;;;;-146.64;100.00;97347.03;5093382;28;20133;-73
2022/06/20 03:55:03;;;;;;;15.48;3.45;;;;;;;-146.64;100.00;96815.47;5057425;28;20020;-71
2022/06/20 03:57:52;;;;;;;10.30;2.97;;;;;;;-146.64;100.00;96283.97;5062623;28;20064;-74
2022/06/20 04:00:23;;;;;;;9.68;3.30;;;;;;;-146.64;100.00;96018.25;5072375;28;20333;-73
2022/06/20 04:03:10;;;;;;;8.77;2.30;;;;;;;-146.64;100.00;94158.66;5055820;28;20483;-73
2022/06/20 04:05:45;;;;;;;16.20;2.83;;;;;;;-146.64;100.00;94955.53;5065555;28;20448;-73
2022/06/20 04:10:57;;;;;;;10.63;2.85;;;;;;;-146.64;100.00;94424.25;5071936;28;20147;-74
2022/06/20 04:11:15;;;;;;;9.38;2.80;;;;;;;-146.64;100.00;94158.66;5065806;28;20484;-73
2022/06/20 04:13:52;;;;;;;;;;;;;;;-146.64;100.00;93096.44;5069906;28;20471;-73
2022/06/20 04:16:29;;;;;;;19.40;2.65;;;;;;;-146.64;100.00;92565.41;5074348;28;20268;-73
2022/06/20 04:19:10;;;;;;;9.80;2.15;;;;;;;-146.64;100.00;88319.81;5089525;28;20086;-72
2022/06/20 04:21:45;;;;;;;16.10;2.58;;;;;;;-146.64;100.00;88319.81;5062538;28;20093;-73
2022/06/20 04:24:51;;;;;;;9.98;2.67;;;;;;;-146.64;100.00;87259.13;5080202;28;20111;-74
2022/06/20 04:27:55;;;;;;;8.70;1.88;;;;;;;-146.64;100.00;85138.56;4979996;28;20038;-73
2022/06/20 04:30:35;;;;;;;12.52;3.08;;;;;;;-146.64;100.00;83284.00;5039203;28;20540;-74
2022/06/20 04:33:05;;;;;;;10.98;2.10;;;;;;;-146.64;100.00;82224.63;5056632;28;20097;-74
2022/06/20 04:35:38;;;;;;;13.38;2.72;;;;;;;-146.64;100.00;80636.09;5058996;28;20031;-74
2022/06/20 04:38:14;;;;;;;8.38;2.22;;;;;;;-146.64;100.00;74816.84;5051263;28;20052;-73
2022/06/20 04:40:48;;;;;;;9.77;2.70;;;;;;;-146.64;100.00;70061.91;5070609;28;20027;-73
2022/06/20 04:43:24;;;;;;;9.73;2.45;;;;;;;-146.64;100.00;67158.91;5059231;28;20123;-73
2022/06/20 04:46:01;;;;;;;15.80;3.67;;;;;;;-146.64;100.00;62676.59;5076169;28;20551;-73
2022/06/20 04:48:27;;;;;;;9.93;2.10;;;;;;;-146.64;100.00;55831.06;5089287;28;20035;-73
2022/06/20 04:50:55;;;;;;;9.47;2.10;;;;;;;-146.64;100.00;50491.22;5075723;28;20060;-74
2022/06/20 04:53:23;;;;;;;8.55;2.33;;;;;;;-146.64;100.00;48582.94;5051541;28;20054;-72
2022/06/20 04:55:51;;;;;;;15.52;3.28;;;;;;;-146.64;100.00;48006.53;5069920;28;20051;-75
2022/06/20 04:58:28;;;;;;;9.30;2.05;;;;;;;-146.64;100.00;46484.91;5079138;28;20043;-73
2022/06/20 05:00:54;;;;;;;13.00;2.38;;;;;;;-146.64;100.00;44111.34;5072630;28;20032;-73
2022/06/20 05:03:44;;;;;;;15.60;2.40;;;;;;;-146.64;100.00;40531.13;5053624;28;20034;-72
2022/06/20 05:06:15;;;;;;;10.93;2.40;;;;;;;-146.64;100.00;38603.13;5069775;28;20060;-72
2022/06/20 05:08:47;;;;;;;10.48;2.75;;;;;;;-146.64;100.00;37054.44;5065155;28;20335;-72
2022/06/20 05:11:21;;;;;;;11.68;2.25;;;;;;;-146.64;100.00;36612.66;5078697;28;20559;-71
2022/06/20 05:13:59;;;;;;;10.18;2.90;;;;;;;-146.64;100.00;36545.16;5039636;28;20560;-74
2022/06/20 05:16:31;;;;;;;10.18;2.75;;;;;;;-146.64;100.00;35827.38;5058702;28;20167;-71
2022/06/20 05:19:01;;;;;;;7.65;2.50;;;;;;;-146.64;100.00;35455.25;5074233;28;20046;-71
2022/06/20 05:21:31;;;;;;;12.82;2.00;;;;;;;-146.64;100.00;36130.00;5077479;28;20020;-73
2022/06/20 05:24:07;;;;;;;10.77;2.70;;;;;;;-146.64;100.00;36328.38;5060061;28;20039;-74
2022/06/20 05:26:35;;;;;;;12.85;2.08;;;;;;;-146.64;100.00;36428.59;5092088;28;20348;-72
2022/06/20 05:29:04;;;;;;;7.93;2.10;;;;;;;-146.64;100.00;36608.56;5071992;28;20292;-72
2022/06/20 05:31:33;;;;;;;8.85;2.33;;;;;;;-146.64;100.00;35968.47;5055337;28;20060;-73
2022/06/20 05:34:19;;;;;;;9.57;2.45;;;;;;;-146.64;100.00;36933.75;5074895;28;20147;-71
2022/06/20 05:37:12;;;;;;;9.07;2.42;;;;;;;-146.64;100.00;37594.47;5039319;28;20051;-75
2022/06/20 05:39:43;;;;;;;7.93;2.47;;;;;;;-146.64;100.00;37680.38;5054704;28;20093;-74
2022/06/20 05:42:11;;;;;;;9.73;2.30;;;;;;;-146.64;100.00;37659.94;5073296;28;20026;-72
2022/06/20 05:44:37;;;;;;;12.68;2.55;;;;;;;-146.64;100.00;37790.84;5067047;28;20450;-74
2022/06/20 05:47:11;;;;;;;10.10;2.30;;;;;;;-146.64;100.00;37776.53;5089354;28;20065;-72
2022/06/20 05:50:06;;;;;;;7.63;2.40;;;;;;;-146.64;100.00;37721.28;5058511;28;20044;-72
2022/06/20 05:52:32;;;;;;;10.00;2.58;;;;;;;-146.64;99.98;37555.59;5087798;28;20044;-73
2022/06/20 05:55:05;;;;;;;6.37;2.37;;;;;;;-146.64;98.81;37664.00;5057526;28;20035;-73
2022/06/20 05:57:32;;;;;;;11.20;2.50;;;;;;;-146.64;92.67;37412.41;5060867;28;20440;-74
2022/06/20 06:00:04;;;;;;;5.55;2.10;;;;;;;-146.64;92.71;37465.59;5069325;28;20093;-73
2022/06/20 06:02:37;;;;;;;10.90;2.38;;;;;;;-146.64;95.47;37361.25;5070903;28;20506;-73
2022/06/20 06:05:17;;;;;;;13.60;2.80;;;;;;;-146.64;92.62;37496.28;5080878;28;20103;-74
2022/06/20 06:07:53;;;;;;;8.70;2.50;;;;;;;-146.64;92.92;37484.00;5051902;28;20032;-73
2022/06/20 06:10:29;;;;;;;9.65;2.97;;;;;;;-146.64;93.51;37520.81;5061496;28;20028;-73
2022/06/20 06:13:22;;;;;;;5.10;1.97;;;;;;;-146.64;90.30;37439.00;5093046;28;20553;-74
2022/06/20 06:18:45;;;;;;;7.22;2.25;;;;;;;-146.64;88.10;37342.84;5075082;28;20089;-74
2022/06/20 06:21:11;;;;;;;7.18;2.00;;;;;;;-146.64;89.98;37616.97;5073575;28;20730;-73
2022/06/20 06:23:37;;;;;;;10.70;2.03;;;;;;;-146.64;95.11;37797.00;5054549;28;20111;-73
2022/06/20 06:26:02;;;;;;;9.98;2.55;;;;;;;-146.64;88.77;37475.81;5068332;28;20028;-72
2022/06/20 06:28:28;;;;;;;9.80;2.83;;;;;;;-146.64;86.37;37394.00;5090237;28;20035;-71
2022/06/20 06:31:08;;;;;;;10.57;2.33;;;;;;;-146.64;84.62;37330.56;5082124;28;20028;-71
2022/06/20 06:33:44;;;;;;;8.60;2.30;;;;;;;-146.64;85.42;37406.25;5059045;28;20020;-73
2022/06/20 06:36:20;;;;;;;9.93;2.05;;;;;;;-146.64;84.23;37449.22;5063786;28;20043;-73
2022/06/20 06:39:01;;;;;;;6.45;2.38;;;;;;;-146.64;80.75;37322.41;5056662;28;20028;-74
2022/06/20 06:41:33;;;;;;;8.98;2.70;;;;;;;-146.64;81.66;37205.78;5062401;28;20466;-72
2022/06/20 06:43:59;;;;;;;10.38;2.17;;;;;;;-146.64;80.39;37132.16;5057415;28;20500;-73
2022/06/20 06:46:36;;;;;;;8.55;1.95;;;;;;;-146.64;73.31;36964.44;5065192;28;20024;-73
2022/06/20 06:49:43;;;;;;;7.57;1.70;;;;;;;-146.64;77.56;37238.53;5059573;28;20032;-72
2022/06/20 06:52:14;;;;;;;9.00;2.75;;;;;;;-146.64;77.20;37586.28;5011234;28;20045;-74
2022/06/20 06:54:42;;;;;;;7.18;1.98;;;;;;;-146.64;81.02;37682.44;5040665;28;20036;-74
2022/06/20 06:57:11;;;;;;;12.40;2.72;;;;;;;-146.64;79.49;37719.25;5067686;28;20515;-73
2022/06/20 06:59:38;;;;;;;10.05;2.20;;;;;;;-146.64;76.98;37651.75;5072805;28;20046;-73
2022/06/20 07:02:07;;;;;;;8.00;2.28;;;;;;;-146.64;76.26;37567.88;5060703;28;20497;-73
2022/06/20 07:04:38;;;;;;;6.00;2.05;;;;;;;-146.64;79.04;37651.75;5072018;28;20028;-73
2022/06/20 07:07:24;;;;;;;12.93;2.63;;;;;;;-146.64;80.88;37780.63;5066522;28;20051;-72
2022/06/20 07:09:52;;;;;;;8.73;2.53;;;;;;;-146.64;81.19;37895.19;5056851;28;20107;-72
2022/06/20 07:12:27;;;;;;;9.60;2.95;;;;;;;-146.64;86.11;38013.84;5074235;28;20026;-73
2022/06/20 07:15:14;;;;;;;7.75;2.83;;;;;;;-146.64;89.03;38105.91;5072482;28;20028;-72
2022/06/20 07:18:07;;;;;;;10.90;2.77;;;;;;;-146.64;91.64;38183.66;5086262;28;20032;-73
2022/06/20 07:20:39;;;;;;;5.35;2.58;;;;;;;-146.64;90.73;38024.09;5075584;28;20093;-73
2022/06/20 07:23:09;;;;;;;18.65;2.83;;;;;;;-146.64;87.98;37938.16;5053187;28;20076;-73
2022/06/20 07:25:39;;;;;;;11.98;2.83;;;;;;;-146.64;89.86;38073.19;5053341;28;20146;-73
2022/06/20 07:28:16;;;;;;;7.70;2.92;;;;;;;-146.64;89.41;38228.69;5069231;28;20048;-73
2022/06/20 07:30:43;;;;;;;;;;;;;;;-146.64;90.46;38200.03;5070075;28;20059;-72
2022/06/20 07:33:13;;;;;;;8.75;2.65;;;;;;;-146.64;91.97;38195.94;5072057;28;19920;-73
2022/06/20 07:35:51;;;;;;;17.73;3.33;;;;;;;-146.64;92.42;38024.09;5090839;28;20089;-73
2022/06/20 07:38:22;;;;;;;8.55;2.63;;;;;;;-146.64;85.54;37805.19;5089885;28;20051;-73
2022/06/20 07:40:52;;;;;;;10.60;2.58;;;;;;;-146.64;80.69;37692.66;5081112;28;20387;-73
2022/06/20 07:43:25;;;;;;;13.73;2.10;;;;;;;-146.64;78.38;37758.13;5081986;28;20024;-73
2022/06/20 07:45:51;;;;;;;16.63;3.35;;;;;;;-146.64;79.83;37741.75;5052662;28;20035;-73
2022/06/20 07:48:22;;;;;;;7.72;2.20;;;;;;;-146.64;77.00;37731.53;5069562;28;20028;-73
2022/06/20 07:51:00;;;;;;;6.13;2.03;;;;;;;-146.64;78.51;37823.59;5091880;28;20028;-73
2022/06/20 07:53:43;;;;;;;8.90;2.95;;;;;;;-146.64;78.41;37672.19;5074026;28;20035;-73
2022/06/20 07:56:16;;;;;;;12.52;2.80;;;;;;;-146.64;79.84;37749.94;5090505;28;20556;-73
2022/06/20 07:58:47;;;;;;;8.27;2.50;;;;;;;-146.64;77.28;37729.47;5080271;28;20076;-73
2022/06/20 08:01:29;;;;;;;6.20;2.15;;;;;;;-146.64;74.71;37668.09;5057308;28;20391;-72
2022/06/20 08:03:58;;;;;;;8.63;2.50;;;;;;;-146.64;72.60;37608.78;5071596;28;20028;-73
2022/06/20 08:06:28;;;;;;;9.50;2.90;;;;;;;-146.64;71.56;37553.53;5070623;28;20027;-74
2022/06/20 08:08:57;;;;;;;6.68;2.35;;;;;;;-146.64;72.65;37596.50;5072644;28;20068;-73
2022/06/20 08:11:51;;;;;;;11.32;2.40;;;;;;;-146.64;73.84;37672.19;5089995;28;20097;-72
2022/06/20 08:14:35;;;;;;;7.10;2.58;;;;;;;-146.64;76.60;37704.94;5068270;28;20036;-74
2022/06/20 08:17:08;;;;;;;8.43;2.40;;;;;;;-146.64;74.26;37641.50;5055381;28;20111;-74
2022/06/20 08:19:34;;;;;;;6.28;2.10;;;;;;;-146.64;67.33;37520.81;5054426;28;20058;-74
2022/06/20 08:22:05;;;;;;;5.05;2.17;;;;;;;-146.64;68.03;37659.94;5078382;28;20107;-73
2022/06/20 08:24:44;;;;;;;8.98;2.20;;;;;;;-146.64;67.70;37823.59;5069959;28;20024;-73
2022/06/20 08:27:15;;;;;;;6.75;1.85;;;;;;;-146.64;70.15;37827.69;5071500;28;20067;-73
2022/06/20 08:29:45;;;;;;;5.82;2.25;;;;;;;-146.64;70.75;37745.84;5071505;28;20024;-73
2022/06/20 08:32:15;;;;;;;8.35;2.60;;;;;;;-146.64;70.28;37692.66;5072202;28;20073;-74
2022/06/20 08:34:47;;;;;;;9.52;2.60;;;;;;;-146.64;71.06;37492.19;5076192;28;20024;-73
2022/06/20 08:37:25;;;;;;;9.32;2.42;;;;;;;-146.64;70.98;37711.06;5090399;28;20024;-73
2022/06/20 08:40:00;;;;;;;6.07;1.90;;;;;;;-146.64;73.71;37913.59;5076299;28;20081;-72
2022/06/20 08:42:50;;;;;;;8.95;3.67;;;;;;;-146.64;75.30;37921.78;5088398;28;20024;-73
2022/06/20 08:45:19;;;;;;;6.03;2.03;;;;;;;-146.64;73.43;37709.03;5089382;28;20028;-73
2022/06/20 08:48:15;;;;;;;12.75;3.00;;;;;;;-146.64;70.55;37664.00;5072142;28;20135;-74
2022/06/20 08:51:20;;;;;;;6.93;1.85;;;;;;;-146.64;68.37;37559.69;5071856;28;20043;-73
2022/06/20 08:54:13;;;;;;;6.82;2.55;;;;;;;-146.64;69.33;37492.19;5057644;28;20127;-73
2022/06/20 08:56:51;;;;;;;10.82;2.47;;;;;;;-146.64;70.88;37709.03;5090326;28;20511;-73
2022/06/20 08:59:23;;;;;;;9.65;2.38;;;;;;;-146.64;68.12;37915.66;5081000;28;20029;-73
2022/06/20 09:02:16;;;;;;;8.25;2.05;;;;;;;-146.64;69.72;37872.69;5058838;28;20560;-72
2022/06/20 09:05:00;;;;;;;8.70;1.85;;;;;;;-146.64;69.83;37745.84;5090814;28;20028;-74
2022/06/20 09:07:49;;;;;;;6.05;2.20;;;;;;;-146.64;71.55;37762.22;5072945;28;20077;-73
2022/06/20 09:10:48;;;;;;;8.63;2.53;;;;;;;-146.64;72.55;37844.03;5090019;28;20024;-73
2022/06/20 09:13:38;;;;;;;6.25;1.98;;;;;;;-146.64;70.31;37842.00;5072048;28;20031;-73
2022/06/20 09:16:17;;;;;;;8.07;2.03;;;;;;;-146.64;65.63;37666.06;5088649;28;20028;-73
2022/06/20 09:19:05;;;;;;;6.47;2.00;;;;;;;-146.64;63.97;37639.47;5065068;28;20400;-73
2022/06/20 09:21:51;;;;;;;4.82;2.00;;;;;;;-146.64;67.45;37754.03;5049113;28;20035;-73
2022/06/20 09:24:40;;;;;;;12.10;2.75;;;;;;;-146.64;67.62;37606.75;5088946;28;20024;-73
2022/06/20 09:27:47;;;;;;;6.55;1.92;;;;;;;-146.64;66.65;37516.72;5071395;28;20020;-73
2022/06/20 09:30:16;;;;;;;5.38;1.85;;;;;;;-146.64;64.74;37377.63;5065759;28;20067;-72
2022/06/20 09:33:00;;;;;;;10.60;2.45;;;;;;;-146.64;62.53;37340.81;5080591;28;20038;-73
2022/06/20 09:35:35;;;;;;;6.65;2.35;;;;;;;-146.64;65.43;37598.56;5086674;28;20024;-73
2022/06/20 09:38:20;;;;;;;7.85;2.42;;;;;;;-146.64;67.16;37860.41;5089975;28;20368;-72
2022/06/20 09:41:08;;;;;;;4.75;1.90;;;;;;;-146.64;64.76;37557.63;5071585;28;20422;-72
2022/06/20 09:43:37;;;;;;;10.10;2.25;;;;;;;-146.64;63.87;37377.63;5072468;28;20032;-73
2022/06/20 09:46:31;;;;;;;8.52;2.10;;;;;;;-146.64;61.86;37394.00;5088166;28;20166;-74
2022/06/20 09:49:09;;;;;;;6.45;2.30;;;;;;;-146.64;61.57;37312.16;5079043;28;20459;-73
2022/06/20 09:51:56;;;;;;;9.80;2.15;;;;;;;-146.64;60.45;37213.97;5071003;28;20448;-73
2022/06/20 09:54:34;;;;;;;9.25;2.42;;;;;;;-146.64;59.18;37150.56;5086265;28;20247;-72
2022/06/20 09:57:09;;;;;;;7.45;2.08;;;;;;;-146.64;56.85;37099.44;5071856;28;20071;-74
2022/06/20 09:59:42;;;;;;;6.53;1.85;;;;;;;-146.64;56.97;37340.81;5075697;28;20492;-73
2022/06/20 10:02:25;;;;;;;5.68;1.70;;;;;;;-146.64;55.19;37267.16;5070880;28;20036;-72
2022/06/20 10:05:08;;;;;;;7.40;1.88;;;;;;;-146.64;54.39;37181.25;5090353;28;20440;-73
2022/06/20 10:07:33;;;;;;;7.10;2.50;;;;;;;-146.64;54.31;37140.34;5060952;28;20543;-73
2022/06/20 10:10:06;;;;;;;7.33;1.80;;;;;;;-146.64;55.15;37287.63;5092710;28;20070;-73
2022/06/20 10:12:57;;;;;;;7.13;2.00;;;;;;;-146.64;54.69;37046.25;5070385;28;20080;-72
2022/06/20 10:15:40;;;;;;;8.88;2.15;;;;;;;-146.64;53.91;37078.97;5074312;28;20027;-74
2022/06/20 10:18:29;;;;;;;8.55;2.38;;;;;;;-146.64;55.67;37242.63;5070244;28;20035;-73
2022/06/20 10:21:02;;;;;;;11.20;3.13;;;;;;;-146.64;54.80;37201.72;5087297;28;20122;-73
2022/06/20 10:23:34;;;;;;;10.50;2.03;;;;;;;-146.64;56.25;37183.28;5070838;28;20070;-73
2022/06/20 10:26:38;;;;;;;8.07;1.80;;;;;;;-146.64;58.13;37373.53;5085672;28;20543;-73
2022/06/20 10:29:20;;;;;;;9.07;1.83;;;;;;;-146.64;55.04;37025.78;5077613;28;20047;-73
2022/06/20 10:32:14;;;;;;;7.60;2.10;;;;;;;-146.64;54.35;37369.44;5061208;28;20024;-72
2022/06/20 10:34:53;;;;;;;9.85;2.38;;;;;;;-146.64;54.87;37244.66;5075095;28;20479;-73
2022/06/20 10:37:27;;;;;;;9.18;2.13;;;;;;;-146.64;55.36;37168.97;5088182;28;20107;-74
2022/06/20 10:40:14;;;;;;;7.18;1.75;;;;;;;-146.64;54.36;37283.53;5069063;28;20055;-73
2022/06/20 10:42:40;;;;;;;7.25;2.25;;;;;;;-146.64;56.25;37484.00;5097011;28;20020;-73
2022/06/20 10:45:23;;;;;;;5.00;1.47;;;;;;;-146.64;54.48;37242.63;5090628;28;20105;-73
2022/06/20 10:48:13;;;;;;;14.25;2.65;;;;;;;-146.64;53.49;37160.78;5088338;28;20051;-74
2022/06/20 10:51:02;;;;;;;9.15;2.30;;;;;;;-146.64;53.16;37074.88;5079012;28;20032;-73
2022/06/20 10:53:48;;;;;;;7.15;2.03;;;;;;;-146.64;52.56;37107.63;5080967;28;20500;-74
2022/06/20 10:56:13;;;;;;;9.55;2.30;;;;;;;-146.64;52.23;36984.88;5076675;28;20024;-74
2022/06/20 10:59:11;;;;;;;6.43;1.70;;;;;;;-146.64;49.42;37093.28;5086613;28;20059;-73
2022/06/20 11:01:58;;;;;;;8.83;2.50;;;;;;;-146.64;50.17;37261.03;5082129;28;20032;-73
2022/06/20 11:04:32;;;;;;;12.07;2.53;;;;;;;-146.64;51.32;37250.81;5082739;28;20032;-74
2022/06/20 11:07:21;;;;;;;6.95;2.03;;;;;;;-146.64;50.96;37136.25;5086811;28;20031;-73
2022/06/20 11:10:03;;;;;;;11.27;2.47;;;;;;;-146.64;50.46;36956.25;5091610;28;20039;-73
2022/06/20 11:12:56;;;;;;;5.32;1.83;;;;;;;-146.64;49.23;36831.50;5056127;28;20035;-73
2022/06/20 11:15:38;;;;;;;5.03;1.67;;;;;;;-146.64;47.45;36804.91;5081679;28;20024;-73
2022/06/20 11:18:25;;;;;;;167.65;136.20;;;;;;;-146.64;48.64;36768.09;5090017;28;20131;-73
2022/06/20 11:20:58;;;;;;;8.88;2.50;;;;;;;-146.64;49.80;36931.72;5071047;28;20086;-74
2022/06/20 11:23:30;;;;;;;9.18;2.63;;;;;;;-146.64;51.40;37160.78;5091030;28;20024;-73
2022/06/20 11:26:21;;;;;;;11.73;2.72;;;;;;;-146.64;52.25;36784.44;5088005;28;20032;-73
2022/06/20 11:29:18;;;;;;;6.50;2.00;;;;;;;-146.64;49.31;37007.38;5064140;28;20040;-74
2022/06/20 11:31:56;;;;;;;10.73;2.15;;;;;;;-146.64;52.68;37164.88;5049878;28;20052;-73
2022/06/20 11:34:44;;;;;;;10.85;2.63;;;;;;;-146.64;53.74;37189.44;5076249;28;20044;-73
2022/06/20 11:37:22;;;;;;;6.10;2.80;;;;;;;-146.64;52.47;37054.44;5090110;28;20121;-73
2022/06/20 11:40:39;;;;;;;9.93;2.15;;;;;;;-146.64;51.71;36943.97;5096067;28;20036;-73
2022/06/20 11:43:22;;;;;;;7.97;2.20;;;;;;;-146.64;51.15;36929.66;5008993;28;20046;-74
2022/06/20 11:45:53;;;;;;;12.27;2.33;;;;;;;-146.64;51.97;37029.88;5047512;28;20467;-73
2022/06/20 11:48:24;;;;;;;10.85;1.88;;;;;;;-146.64;50.99;37140.34;5061192;28;20024;-73
2022/06/20 11:51:11;;;;;;;9.88;2.25;;;;;;;-146.64;50.25;36892.84;5074659;28;20036;-73
2022/06/20 11:53:49;;;;;;;7.65;2.17;;;;;;;-146.64;51.51;36890.81;5081597;28;20029;-73
2022/06/20 11:56:19;;;;;;;10.75;2.00;;;;;;;-146.64;51.38;36907.16;5094517;28;20031;-73